Olga Topic — ELSG4 — position and weather

sailwx.info

Track history (hours):
 
Tides and Currents Weather Stations Pressure Air Temp Water Temp Dewpoint Dewpoint Depression Visibility Wind Speed Wind Dir Waves Ship Positions

Olga Topic

Last reported at 2015-Feb-27 23:27 UTC. Time now 2015-Mar-05 10:30 UTC.
Position S 24°00' W 040°01'.

Length 186 m; draft 10.5 m.

Type: Cargo ship. MMSI: 636010327.

Date/timePositionNaut miles runAvg speedWind from/ knotsBaromVisibWave heightAir tempDewpointWater temp
2015-Feb-27 23:27S 24°00' W 040°01'  
2015-Feb-24 23:13S 34°33' W 053°27'1112.6
2015-Feb-24 22:21S 34°42' W 053°35'1012.1
2015-Feb-24 21:31S 34°47' W 053°45'1212.3
2015-Feb-24 20:31S 34°51' W 053°59'1212.1
2015-Feb-24 19:33S 34°56' W 054°12'1212.3
2015-Feb-24 18:32S 35°02' W 054°26'8311.9
2015-Feb-24 11:33S 35°07' W 056°07'1111.0
2015-Feb-24 10:33S 35°10' W 056°20'13 9.9
2015-Feb-24 09:17S 35°10' W 056°35'44 6.5
2015-Feb-24 02:32S 34°51' W 057°23'0 0.2
2015-Feb-24 01:29S 34°51' W 057°23'0 0.1
2015-Feb-24 00:32S 34°51' W 057°23'0 0.4
2015-Feb-23 23:33S 34°51' W 057°24'7 6.6
2015-Feb-23 22:33S 34°47' W 057°31'10 9.6
2015-Feb-23 21:33S 34°44' W 057°42'8 8.1
2015-Feb-23 20:33S 34°43' W 057°52'0 0.2
2015-Feb-23 19:33S 34°43' W 057°51'0 0.0
2015-Feb-23 18:33S 34°43' W 057°51'0 0.0
2015-Feb-23 17:33S 34°43' W 057°51'0 0.0
2015-Feb-23 16:33S 34°43' W 057°51'0 0.0
2015-Feb-23 15:33S 34°43' W 057°51'0 0.0
2015-Feb-23 14:33S 34°43' W 057°51'0 0.1
2015-Feb-23 13:33S 34°43' W 057°52'0 0.1
2015-Feb-23 12:33S 34°43' W 057°52'0 0.0
2015-Feb-23 11:33S 34°43' W 057°52'0 0.1
2015-Feb-23 10:32S 34°43' W 057°52'0 0.1
2015-Feb-23 09:33S 34°43' W 057°51'0 0.1
2015-Feb-23 08:32S 34°43' W 057°51'0 0.0
2015-Feb-23 07:32S 34°43' W 057°51'0 0.0
2015-Feb-23 06:32S 34°43' W 057°51'0 0.0
2015-Feb-23 05:32S 34°43' W 057°51'0 0.0
2015-Feb-23 04:32S 34°43' W 057°51'0 0.0
2015-Feb-23 03:32S 34°43' W 057°51'0 0.2
2015-Feb-23 02:32S 34°43' W 057°52'0 0.1
2015-Feb-23 01:32S 34°43' W 057°52'0 0.0
2015-Feb-23 00:32S 34°43' W 057°52'0 0.0
2015-Feb-22 23:29S 34°43' W 057°52'0 0.0
2015-Feb-22 22:26S 34°43' W 057°52'0 0.0
2015-Feb-22 21:32S 34°43' W 057°52'0 0.1
2015-Feb-22 20:32S 34°43' W 057°52'0 0.2
2015-Feb-22 19:32S 34°43' W 057°51'0 0.0
2015-Feb-22 18:32S 34°43' W 057°51'0 0.0
2015-Feb-22 17:29S 34°43' W 057°51'0 0.0
2015-Feb-22 16:29S 34°43' W 057°51'0 0.0
2015-Feb-22 15:29S 34°43' W 057°51'0 0.0
2015-Feb-22 14:32S 34°43' W 057°51'0 0.0
2015-Feb-22 13:32S 34°43' W 057°51'0 0.0
2015-Feb-22 12:08S 34°43' W 057°51'0 0.1
2015-Feb-22 11:11S 34°43' W 057°52'0 0.1
2015-Feb-22 10:32S 34°43' W 057°52'0 0.1
2015-Feb-22 09:32S 34°43' W 057°52'0 0.1
2015-Feb-22 08:26S 34°43' W 057°51'0 0.0
2015-Feb-22 07:17S 34°43' W 057°51'0 0.0
2015-Feb-22 06:32S 34°43' W 057°51'1 0.6
2015-Feb-22 05:33S 34°43' W 057°52'  
Track history (hours):
 
Tides and Currents Weather Stations Pressure Air Temp Water Temp Dewpoint Dewpoint Depression Visibility Wind Speed Wind Dir Waves Ship Positions

Olga Topic

Last reported at 2015-Feb-27 23:27 UTC. Time now 2015-Mar-05 10:30 UTC.
Position S 24°00' W 040°01'.

Length 186 m; draft 10.5 m.

Type: Cargo ship. MMSI: 636010327.

Date/timePositionNaut miles runAvg speedWind from/ knotsBaromVisibWave heightAir tempDewpointWater temp
2015-Feb-27 23:27S 24°00' W 040°01'  
2015-Feb-24 23:13S 34°33' W 053°27'1112.6
2015-Feb-24 22:21S 34°42' W 053°35'1012.1
2015-Feb-24 21:31S 34°47' W 053°45'1212.3
2015-Feb-24 20:31S 34°51' W 053°59'1212.1
2015-Feb-24 19:33S 34°56' W 054°12'1212.3
2015-Feb-24 18:32S 35°02' W 054°26'8311.9
2015-Feb-24 11:33S 35°07' W 056°07'1111.0
2015-Feb-24 10:33S 35°10' W 056°20'13 9.9
2015-Feb-24 09:17S 35°10' W 056°35'44 6.5
2015-Feb-24 02:32S 34°51' W 057°23'0 0.2
2015-Feb-24 01:29S 34°51' W 057°23'0 0.1
2015-Feb-24 00:32S 34°51' W 057°23'0 0.4
2015-Feb-23 23:33S 34°51' W 057°24'7 6.6
2015-Feb-23 22:33S 34°47' W 057°31'10 9.6
2015-Feb-23 21:33S 34°44' W 057°42'8 8.1
2015-Feb-23 20:33S 34°43' W 057°52'0 0.2
2015-Feb-23 19:33S 34°43' W 057°51'0 0.0
2015-Feb-23 18:33S 34°43' W 057°51'0 0.0
2015-Feb-23 17:33S 34°43' W 057°51'0 0.0
2015-Feb-23 16:33S 34°43' W 057°51'0 0.0
2015-Feb-23 15:33S 34°43' W 057°51'0 0.0
2015-Feb-23 14:33S 34°43' W 057°51'0 0.1
2015-Feb-23 13:33S 34°43' W 057°52'0 0.1
2015-Feb-23 12:33S 34°43' W 057°52'0 0.0
2015-Feb-23 11:33S 34°43' W 057°52'0 0.1
2015-Feb-23 10:32S 34°43' W 057°52'0 0.1
2015-Feb-23 09:33S 34°43' W 057°51'0 0.1
2015-Feb-23 08:32S 34°43' W 057°51'0 0.0
2015-Feb-23 07:32S 34°43' W 057°51'0 0.0
2015-Feb-23 06:32S 34°43' W 057°51'0 0.0
2015-Feb-23 05:32S 34°43' W 057°51'0 0.0
2015-Feb-23 04:32S 34°43' W 057°51'0 0.0
2015-Feb-23 03:32S 34°43' W 057°51'0 0.2
2015-Feb-23 02:32S 34°43' W 057°52'0 0.1
2015-Feb-23 01:32S 34°43' W 057°52'0 0.0
2015-Feb-23 00:32S 34°43' W 057°52'0 0.0
2015-Feb-22 23:29S 34°43' W 057°52'0 0.0
2015-Feb-22 22:26S 34°43' W 057°52'0 0.0
2015-Feb-22 21:32S 34°43' W 057°52'0 0.1
2015-Feb-22 20:32S 34°43' W 057°52'0 0.2
2015-Feb-22 19:32S 34°43' W 057°51'0 0.0
2015-Feb-22 18:32S 34°43' W 057°51'0 0.0
2015-Feb-22 17:29S 34°43' W 057°51'0 0.0
2015-Feb-22 16:29S 34°43' W 057°51'0 0.0
2015-Feb-22 15:29S 34°43' W 057°51'0 0.0
2015-Feb-22 14:32S 34°43' W 057°51'0 0.0
2015-Feb-22 13:32S 34°43' W 057°51'0 0.0
2015-Feb-22 12:08S 34°43' W 057°51'0 0.1
2015-Feb-22 11:11S 34°43' W 057°52'0 0.1
2015-Feb-22 10:32S 34°43' W 057°52'0 0.1
2015-Feb-22 09:32S 34°43' W 057°52'0 0.1
2015-Feb-22 08:26S 34°43' W 057°51'0 0.0
2015-Feb-22 07:17S 34°43' W 057°51'0 0.0
2015-Feb-22 06:32S 34°43' W 057°51'1 0.6
2015-Feb-22 05:33S 34°43' W 057°52'  

Dump ship's entire track history